createdAt,value
2023-01-06T00:00:42.409Z,94479.44
2023-01-06T00:03:10.096Z,94483.53
2023-01-06T00:05:36.795Z,94480.63
2023-01-06T00:08:03.505Z,94495.22
2023-01-06T00:10:30.237Z,94496.47
2023-01-06T00:12:56.939Z,94508.31
2023-01-06T00:15:23.564Z,94501.44
2023-01-06T00:17:50.320Z,94508.00
2023-01-06T00:20:17.016Z,94514.78
2023-01-06T00:22:43.869Z,94515.34
2023-01-06T00:25:11.049Z,94515.25
2023-01-06T00:27:39.147Z,94530.06
2023-01-06T00:30:06.756Z,94519.59
2023-01-06T00:32:33.477Z,94531.84
2023-01-06T00:35:00.146Z,94540.03
2023-01-06T00:37:26.810Z,94535.91
2023-01-06T00:39:53.424Z,94518.78
2023-01-06T00:42:20.209Z,94527.13
2023-01-06T00:44:46.863Z,94538.06
2023-01-06T00:47:14.334Z,94542.47
2023-01-06T00:49:40.949Z,94548.16
2023-01-06T00:52:07.668Z,94548.31
2023-01-06T00:54:35.322Z,94559.03
2023-01-06T00:57:02.467Z,94549.41
2023-01-06T00:59:29.096Z,94548.94
2023-01-06T01:01:57.718Z,94558.44
2023-01-06T01:04:25.889Z,94560.66
2023-01-06T01:06:53.867Z,94557.47
2023-01-06T01:09:26.704Z,94555.34
2023-01-06T01:12:12.394Z,94553.91
2023-01-06T01:14:47.268Z,94542.03
2023-01-06T01:17:19.584Z,94536.84
2023-01-06T01:19:46.980Z,94545.41
2023-01-06T01:22:13.708Z,94540.81
2023-01-06T01:24:40.359Z,94535.53
2023-01-06T01:27:07.380Z,94529.53
2023-01-06T01:29:34.543Z,94520.84
2023-01-06T01:32:02.738Z,94536.44
2023-01-06T01:34:29.464Z,94531.13
2023-01-06T01:36:56.769Z,94533.34
2023-01-06T01:39:26.781Z,94536.19
2023-01-06T01:41:55.013Z,94527.81
2023-01-06T01:44:54.415Z,94513.34
2023-01-06T01:47:35.681Z,94510.81
2023-01-06T01:50:28.270Z,94489.38
2023-01-06T01:53:02.339Z,94481.16
2023-01-06T01:55:31.425Z,94479.84
2023-01-06T01:58:12.539Z,94476.09
2023-01-06T02:00:41.054Z,94472.50
2023-01-06T02:03:08.117Z,94478.09
2023-01-06T02:05:39.539Z,94481.69
2023-01-06T02:08:15.323Z,94477.47
2023-01-06T02:10:41.962Z,94482.50
2023-01-06T02:13:08.771Z,94505.22
2023-01-06T02:15:35.402Z,94518.53
2023-01-06T02:18:16.951Z,94520.41
2023-01-06T02:21:00.677Z,94534.34
2023-01-06T02:23:57.235Z,94555.06
2023-01-06T02:26:38.847Z,94557.69
2023-01-06T02:29:17.295Z,94564.91
2023-01-06T02:32:08.572Z,94564.22
2023-01-06T02:34:47.133Z,94577.53
2023-01-06T02:37:37.156Z,94577.03
2023-01-06T02:40:47.552Z,94568.06
2023-01-06T02:43:38.567Z,94572.56
2023-01-06T02:46:29.031Z,94562.75
2023-01-06T02:49:06.702Z,94560.44
2023-01-06T02:52:04.016Z,94542.78
2023-01-06T02:54:44.006Z,94552.81
2023-01-06T02:57:26.920Z,94549.38
2023-01-06T03:00:03.601Z,94543.09
2023-01-06T03:02:32.936Z,94533.81
2023-01-06T03:05:02.754Z,94531.63
2023-01-06T03:07:31.821Z,94523.25
2023-01-06T03:10:00.519Z,94517.63
2023-01-06T03:12:43.060Z,94512.97
2023-01-06T03:15:10.252Z,94504.75
2023-01-06T03:17:36.940Z,94518.94
2023-01-06T03:20:04.015Z,94514.69
2023-01-06T03:22:32.273Z,94530.59
2023-01-06T03:25:00.705Z,94534.09
2023-01-06T03:27:28.127Z,94528.53
2023-01-06T03:29:55.003Z,94546.75
2023-01-06T03:32:34.198Z,94558.00
2023-01-06T03:35:22.503Z,94563.28
2023-01-06T03:37:58.000Z,94561.84
2023-01-06T03:40:37.286Z,94555.81
2023-01-06T03:43:22.044Z,94547.03
2023-01-06T03:46:13.042Z,94527.69
2023-01-06T03:48:54.362Z,94538.91
2023-01-06T03:51:30.174Z,94535.84
2023-01-06T03:54:14.356Z,94550.72
2023-01-06T03:56:44.962Z,94534.97
2023-01-06T03:59:17.225Z,94549.81
2023-01-06T04:01:45.012Z,94544.72
2023-01-06T04:04:11.864Z,94542.63
2023-01-06T04:06:38.619Z,94556.69
2023-01-06T04:09:05.410Z,94564.75
2023-01-06T04:11:50.479Z,94565.16
2023-01-06T04:14:17.121Z,94565.22
2023-01-06T04:16:43.755Z,94570.47
2023-01-06T04:19:10.409Z,94570.69
2023-01-06T04:21:37.149Z,94580.50
2023-01-06T04:24:04.248Z,94569.69
2023-01-06T04:26:30.821Z,94580.09
2023-01-06T04:28:57.427Z,94587.59
2023-01-06T04:31:24.038Z,94594.22
2023-01-06T04:33:50.698Z,94605.03
2023-01-06T04:36:17.424Z,94613.19
2023-01-06T04:38:46.763Z,94618.53
2023-01-06T04:41:13.400Z,94606.03
2023-01-06T04:43:40.084Z,94603.41
2023-01-06T04:46:06.804Z,94588.00
2023-01-06T04:48:33.463Z,94581.03
2023-01-06T04:51:05.001Z,94584.25
2023-01-06T04:53:36.846Z,94581.69
2023-01-06T04:56:09.218Z,94595.19
2023-01-06T04:58:36.375Z,94605.41
2023-01-06T05:01:07.802Z,94624.19
2023-01-06T05:03:37.825Z,94629.34
2023-01-06T05:06:09.873Z,94624.03
2023-01-06T05:08:38.038Z,94623.06
2023-01-06T05:11:10.981Z,94622.94
2023-01-06T05:13:37.897Z,94619.44
2023-01-06T05:16:15.941Z,94632.91
2023-01-06T05:18:42.603Z,94630.59
2023-01-06T05:21:13.599Z,94629.16
2023-01-06T05:23:40.703Z,94625.41
2023-01-06T05:26:09.228Z,94626.75
2023-01-06T05:28:35.813Z,94632.28
2023-01-06T05:31:04.651Z,94635.19
2023-01-06T05:33:32.680Z,94640.50
2023-01-06T05:36:14.219Z,94661.28
2023-01-06T05:38:41.308Z,94668.59
2023-01-06T05:41:08.219Z,94661.97
2023-01-06T05:43:36.070Z,94672.47
2023-01-06T05:46:10.188Z,94670.59
2023-01-06T05:48:37.857Z,94659.97
2023-01-06T05:51:12.746Z,94655.97
2023-01-06T05:53:41.360Z,94651.59
2023-01-06T05:56:10.830Z,94655.69
2023-01-06T05:58:40.424Z,94653.38
2023-01-06T06:01:16.726Z,94656.13
2023-01-06T06:03:43.888Z,94647.47
2023-01-06T06:06:10.472Z,94656.13
2023-01-06T06:08:37.099Z,94648.66
2023-01-06T06:11:11.439Z,94634.66
2023-01-06T06:13:38.718Z,94638.00
2023-01-06T06:16:11.735Z,94634.03
2023-01-06T06:18:42.996Z,94620.06
2023-01-06T06:21:14.896Z,94616.44
2023-01-06T06:23:41.985Z,94623.66
2023-01-06T06:26:10.485Z,94631.19
2023-01-06T06:28:38.255Z,94651.75
2023-01-06T06:31:10.740Z,94651.69
2023-01-06T06:33:37.824Z,94660.25
2023-01-06T06:36:06.104Z,94663.03
2023-01-06T06:38:32.935Z,94674.38
2023-01-06T06:40:59.565Z,94676.69
2023-01-06T06:43:26.215Z,94680.03
2023-01-06T06:45:52.845Z,94680.69
2023-01-06T06:48:19.539Z,94682.47
2023-01-06T06:50:46.178Z,94682.31
2023-01-06T06:53:12.790Z,94678.13
2023-01-06T06:55:39.384Z,94687.31
2023-01-06T06:58:07.141Z,94695.94
2023-01-06T07:00:33.738Z,94692.22
2023-01-06T07:03:00.588Z,94698.06
2023-01-06T07:05:27.456Z,94701.97
2023-01-06T07:07:54.113Z,94694.88
2023-01-06T07:10:20.771Z,94704.56
2023-01-06T07:12:47.340Z,94711.09
2023-01-06T07:15:14.050Z,94713.31
2023-01-06T07:17:41.975Z,94723.72
2023-01-06T07:20:09.582Z,94719.28
2023-01-06T07:22:40.201Z,94716.22
2023-01-06T07:25:08.940Z,94723.00
2023-01-06T07:27:36.459Z,94729.03
2023-01-06T07:30:05.230Z,94724.13
2023-01-06T07:32:31.840Z,94732.50
2023-01-06T07:34:58.495Z,94745.91
2023-01-06T07:37:25.106Z,94749.47
2023-01-06T07:39:51.694Z,94762.28
2023-01-06T07:42:18.313Z,94749.13
2023-01-06T07:44:44.885Z,94762.97
2023-01-06T07:47:11.455Z,94746.56
2023-01-06T07:49:38.124Z,94761.75
2023-01-06T07:52:04.837Z,94756.03
2023-01-06T07:54:31.448Z,94755.41
2023-01-06T07:56:58.118Z,94748.09
2023-01-06T07:59:24.739Z,94737.53
2023-01-06T08:01:51.465Z,94744.22
2023-01-06T08:04:18.148Z,94762.25
2023-01-06T08:06:44.855Z,94749.91
2023-01-06T08:09:16.017Z,94758.16
2023-01-06T08:11:42.662Z,94766.63
2023-01-06T08:14:11.239Z,94757.66
2023-01-06T08:16:41.406Z,94755.75
2023-01-06T08:19:08.043Z,94750.00
2023-01-06T08:21:34.737Z,94747.81
2023-01-06T08:24:01.392Z,94755.38
2023-01-06T08:26:28.080Z,94750.16
2023-01-06T08:28:55.246Z,94754.34
2023-01-06T08:31:22.410Z,94763.69
2023-01-06T08:33:50.762Z,94761.25
2023-01-06T08:36:19.464Z,94769.94
2023-01-06T08:38:46.340Z,94768.53
2023-01-06T08:41:13.039Z,94781.53
2023-01-06T08:43:43.621Z,94779.38
2023-01-06T08:46:14.248Z,94791.16
2023-01-06T08:48:41.213Z,94782.06
2023-01-06T08:51:12.761Z,94776.78
2023-01-06T08:53:39.568Z,94772.66
2023-01-06T08:56:14.087Z,94768.25
2023-01-06T08:58:41.164Z,94766.69
2023-01-06T09:01:14.765Z,94764.09
2023-01-06T09:03:41.377Z,94756.13
2023-01-06T09:06:08.072Z,94770.56
2023-01-06T09:08:34.700Z,94772.69
2023-01-06T09:11:10.057Z,94765.91
2023-01-06T09:13:36.934Z,94764.31
2023-01-06T09:16:10.448Z,94770.13
2023-01-06T09:18:37.898Z,94756.03
2023-01-06T09:21:05.547Z,94758.22
2023-01-06T09:23:36.883Z,94752.34
2023-01-06T09:26:03.609Z,94758.53
2023-01-06T09:28:30.179Z,94759.41
2023-01-06T09:30:56.853Z,94752.88
2023-01-06T09:33:23.586Z,94750.84
2023-01-06T09:35:50.326Z,94750.94
2023-01-06T09:38:17.033Z,94754.72
2023-01-06T09:41:11.347Z,94747.22
2023-01-06T09:43:37.869Z,94744.59
2023-01-06T09:46:06.346Z,94738.88
2023-01-06T09:49:09.935Z,94736.31
2023-01-06T09:51:38.036Z,94724.56
2023-01-06T09:54:27.445Z,94727.50
2023-01-06T09:57:08.175Z,94727.91
2023-01-06T09:59:45.174Z,94728.13
2023-01-06T10:02:21.250Z,94727.03
2023-01-06T10:04:48.043Z,94721.81
2023-01-06T10:07:43.876Z,94736.38
2023-01-06T10:10:22.025Z,94724.00
2023-01-06T10:13:00.951Z,94715.00
2023-01-06T10:15:38.893Z,94706.41
2023-01-06T10:18:37.807Z,94702.91
2023-01-06T10:21:35.238Z,94692.03
2023-01-06T10:24:14.990Z,94685.41
2023-01-06T10:26:49.281Z,94677.72
2023-01-06T10:29:20.705Z,94682.00
2023-01-06T10:31:49.272Z,94688.16
2023-01-06T10:34:27.386Z,94689.69
2023-01-06T10:37:20.212Z,94684.25
2023-01-06T10:39:54.361Z,94697.84
2023-01-06T10:42:42.374Z,94698.16
2023-01-06T10:45:14.990Z,94708.03
2023-01-06T10:47:43.615Z,94701.31
2023-01-06T10:50:15.936Z,94692.81
2023-01-06T10:52:43.730Z,94676.47
2023-01-06T10:55:34.039Z,94684.00
2023-01-06T10:58:17.432Z,94664.69
2023-01-06T11:01:11.891Z,94665.94
2023-01-06T11:03:43.009Z,94659.44
2023-01-06T11:06:24.357Z,94657.09
2023-01-06T11:08:51.063Z,94654.09
2023-01-06T11:11:34.697Z,94651.84
2023-01-06T11:14:05.653Z,94654.78
2023-01-06T11:16:35.716Z,94656.53
2023-01-06T11:19:08.049Z,94659.03
2023-01-06T11:21:43.793Z,94658.44
2023-01-06T11:24:21.493Z,94662.22
2023-01-06T11:26:53.223Z,94659.22
2023-01-06T11:29:25.276Z,94667.44
2023-01-06T11:31:52.071Z,94667.44
2023-01-06T11:34:24.683Z,94679.28
2023-01-06T11:36:52.617Z,94662.69
2023-01-06T11:39:26.688Z,94653.59
2023-01-06T11:41:55.594Z,94660.72
2023-01-06T11:44:29.080Z,94676.53
2023-01-06T11:46:59.381Z,94659.84
2023-01-06T11:49:31.173Z,94661.75
2023-01-06T11:52:12.398Z,94664.09
2023-01-06T11:54:40.198Z,94678.19
2023-01-06T11:57:39.619Z,94674.03
2023-01-06T12:00:11.975Z,94669.34
2023-01-06T12:02:45.333Z,94666.84
2023-01-06T12:05:25.147Z,94673.09
2023-01-06T12:07:54.417Z,94675.31
2023-01-06T12:10:28.764Z,94674.78
2023-01-06T12:12:55.437Z,94674.63
2023-01-06T12:15:23.607Z,94674.53
2023-01-06T12:17:58.319Z,94675.97
2023-01-06T12:20:28.080Z,94677.84
2023-01-06T12:23:17.661Z,94678.13
2023-01-06T12:25:49.240Z,94670.69
2023-01-06T12:28:21.264Z,94679.56
2023-01-06T12:30:55.040Z,94668.84
2023-01-06T12:33:34.035Z,94683.44
2023-01-06T12:36:05.481Z,94685.91
2023-01-06T12:38:47.364Z,94686.88
2023-01-06T12:41:20.122Z,94681.03
2023-01-06T12:43:58.684Z,94695.06
2023-01-06T12:46:32.419Z,94691.28
2023-01-06T12:49:42.574Z,94689.44
2023-01-06T12:52:15.443Z,94681.41
2023-01-06T12:54:52.667Z,94676.59
2023-01-06T12:57:46.324Z,94675.09
2023-01-06T13:00:18.732Z,94683.59
2023-01-06T13:03:22.651Z,94681.69
2023-01-06T13:06:13.167Z,94686.31
2023-01-06T13:08:39.719Z,94684.38
2023-01-06T13:11:32.512Z,94684.34
2023-01-06T13:14:17.440Z,94682.47
2023-01-06T13:16:54.748Z,94689.50
2023-01-06T13:19:33.011Z,94694.22
2023-01-06T13:22:01.949Z,94700.53
2023-01-06T13:24:57.456Z,94689.75
2023-01-06T13:27:57.858Z,94705.63
2023-01-06T13:30:43.007Z,94709.78
2023-01-06T13:33:27.509Z,94710.84
2023-01-06T13:36:15.493Z,94715.97
2023-01-06T13:39:00.192Z,94720.56
2023-01-06T13:41:33.101Z,94721.84
2023-01-06T13:44:01.726Z,94731.06
2023-01-06T13:46:30.802Z,94722.75
2023-01-06T13:49:02.465Z,94730.38
2023-01-06T13:51:33.967Z,94735.34
2023-01-06T13:54:02.871Z,94750.00
2023-01-06T13:56:34.413Z,94750.44
2023-01-06T13:59:47.836Z,94752.09
2023-01-06T14:02:49.851Z,94747.25
2023-01-06T14:05:19.330Z,94751.38
2023-01-06T14:07:55.815Z,94753.13
2023-01-06T14:10:30.960Z,94752.28
2023-01-06T14:12:58.001Z,94750.13
2023-01-06T14:15:36.576Z,94741.78
2023-01-06T14:18:04.035Z,94744.50
2023-01-06T14:20:33.694Z,94740.56
2023-01-06T14:23:27.960Z,94753.44
2023-01-06T14:25:57.092Z,94751.44
2023-01-06T14:28:27.842Z,94755.81
2023-01-06T14:31:31.512Z,94757.59
2023-01-06T14:34:00.204Z,94748.06
2023-01-06T14:36:31.860Z,94760.41
2023-01-06T14:39:02.558Z,94756.63
2023-01-06T14:41:35.231Z,94764.06
2023-01-06T14:44:19.989Z,94758.13
2023-01-06T14:46:53.971Z,94756.97
2023-01-06T14:49:35.872Z,94765.06
2023-01-06T14:52:09.715Z,94771.66
2023-01-06T14:54:43.294Z,94775.13
2023-01-06T14:57:34.870Z,94775.63
2023-01-06T15:00:24.406Z,94760.13
2023-01-06T15:02:54.144Z,94757.88
2023-01-06T15:05:22.872Z,94753.84
2023-01-06T15:08:26.425Z,94750.66
2023-01-06T15:10:53.079Z,94752.41
2023-01-06T15:13:21.633Z,94750.97
2023-01-06T15:16:08.094Z,94759.50
2023-01-06T15:18:36.786Z,94768.94
2023-01-06T15:21:04.021Z,94768.06
2023-01-06T15:23:30.683Z,94766.06
2023-01-06T15:25:57.377Z,94770.00
2023-01-06T15:28:31.614Z,94781.53
2023-01-06T15:30:59.942Z,94781.16
2023-01-06T15:33:35.938Z,94776.03
2023-01-06T15:36:03.856Z,94781.63
2023-01-06T15:38:37.179Z,94781.63
2023-01-06T15:41:05.900Z,94782.81
2023-01-06T15:43:44.172Z,94796.63
2023-01-06T15:46:12.906Z,94796.84
2023-01-06T15:48:47.203Z,94788.66
2023-01-06T15:51:17.022Z,94792.16
2023-01-06T15:53:46.630Z,94789.00
2023-01-06T15:56:20.860Z,94786.84
2023-01-06T15:58:50.673Z,94791.38
2023-01-06T16:01:22.813Z,94791.34
2023-01-06T16:03:52.980Z,94796.44
2023-01-06T16:06:38.692Z,94791.22
2023-01-06T16:09:20.615Z,94800.88
2023-01-06T16:12:16.149Z,94801.72
2023-01-06T16:14:47.118Z,94803.06
2023-01-06T16:17:28.658Z,94795.91
2023-01-06T16:20:01.070Z,94797.09
2023-01-06T16:22:38.277Z,94798.81
2023-01-06T16:25:34.365Z,94794.09
2023-01-06T16:28:04.473Z,94792.94
2023-01-06T16:30:36.760Z,94802.28
2023-01-06T16:33:04.574Z,94789.13
2023-01-06T16:35:38.324Z,94786.78
2023-01-06T16:38:06.857Z,94786.16
2023-01-06T16:40:33.587Z,94795.72
2023-01-06T16:43:02.832Z,94793.25
2023-01-06T16:45:32.475Z,94797.53
2023-01-06T16:47:59.748Z,94802.53
2023-01-06T16:50:34.262Z,94804.41
2023-01-06T16:53:03.693Z,94802.56
2023-01-06T16:55:30.866Z,94798.81
2023-01-06T16:58:00.201Z,94802.31
2023-01-06T17:00:27.149Z,94808.91
2023-01-06T17:02:54.364Z,94809.09
2023-01-06T17:05:27.373Z,94815.97
2023-01-06T17:08:00.707Z,94817.13
2023-01-06T17:10:28.459Z,94822.13
2023-01-06T17:13:20.598Z,94819.94
2023-01-06T17:15:51.544Z,94807.16
2023-01-06T17:18:26.724Z,94824.53
2023-01-06T17:21:00.279Z,94818.91
2023-01-06T17:23:26.947Z,94819.47
2023-01-06T17:26:02.319Z,94807.47
2023-01-06T17:28:31.217Z,94818.56
2023-01-06T17:31:00.004Z,94823.06
2023-01-06T17:33:28.529Z,94822.41
2023-01-06T17:35:56.474Z,94820.66
2023-01-06T17:38:25.216Z,94828.38
2023-01-06T17:40:52.663Z,94833.06
2023-01-06T17:43:27.019Z,94826.81
2023-01-06T17:45:53.770Z,94827.06
2023-01-06T17:48:20.930Z,94834.94
2023-01-06T17:50:50.899Z,94831.06
2023-01-06T17:53:50.932Z,94836.94
2023-01-06T17:56:17.825Z,94836.53
2023-01-06T17:58:45.785Z,94839.31
2023-01-06T18:01:34.024Z,94845.19
2023-01-06T18:04:02.383Z,94843.22
2023-01-06T18:06:37.296Z,94839.81
2023-01-06T18:09:06.853Z,94841.16
2023-01-06T18:11:42.015Z,94836.81
2023-01-06T18:14:17.844Z,94839.94
2023-01-06T18:16:50.285Z,94839.50
2023-01-06T18:19:34.893Z,94834.72
2023-01-06T18:22:16.785Z,94838.56
2023-01-06T18:24:44.044Z,94836.84
2023-01-06T18:27:27.419Z,94842.44
2023-01-06T18:30:00.379Z,94844.91
2023-01-06T18:32:32.568Z,94843.63
2023-01-06T18:35:16.983Z,94840.41
2023-01-06T18:37:44.132Z,94842.47
2023-01-06T18:40:18.453Z,94837.03
2023-01-06T18:42:47.312Z,94838.31
2023-01-06T18:45:29.214Z,94838.16
2023-01-06T18:47:59.689Z,94836.69
2023-01-06T18:50:27.957Z,94840.38
2023-01-06T18:53:05.625Z,94843.75
2023-01-06T18:55:43.643Z,94841.16
2023-01-06T18:58:22.084Z,94842.13
2023-01-06T19:00:54.027Z,94843.22
2023-01-06T19:03:52.598Z,94843.84
2023-01-06T19:06:19.163Z,94843.00
2023-01-06T19:08:49.087Z,94833.66
2023-01-06T19:11:22.255Z,94841.31
2023-01-06T19:13:50.099Z,94836.94
2023-01-06T19:16:30.137Z,94854.78
2023-01-06T19:19:18.975Z,94855.28
2023-01-06T19:21:45.912Z,94861.97
2023-01-06T19:24:27.755Z,94863.22
2023-01-06T19:26:57.922Z,94861.69
2023-01-06T19:29:28.424Z,94861.38
2023-01-06T19:31:57.054Z,94864.56
2023-01-06T19:34:23.790Z,94860.72
2023-01-06T19:36:54.390Z,94860.22
2023-01-06T19:39:24.249Z,94862.47
2023-01-06T19:42:30.289Z,94863.63
2023-01-06T19:45:09.269Z,94863.34
2023-01-06T19:47:41.042Z,94856.31
2023-01-06T19:50:20.417Z,94863.88
2023-01-06T19:52:47.774Z,94861.63
2023-01-06T19:55:17.332Z,94852.47
2023-01-06T19:57:54.589Z,94858.38
2023-01-06T20:00:26.655Z,94859.13
2023-01-06T20:02:57.668Z,94858.53
2023-01-06T20:05:28.345Z,94846.19
2023-01-06T20:07:55.141Z,94853.28
2023-01-06T20:10:21.854Z,94855.28
2023-01-06T20:12:49.043Z,94858.94
2023-01-06T20:15:16.812Z,94873.44
2023-01-06T20:17:43.519Z,94863.63
2023-01-06T20:20:10.815Z,94862.63
2023-01-06T20:22:37.902Z,94861.78
2023-01-06T20:25:04.920Z,94861.53
2023-01-06T20:27:31.532Z,94862.94
2023-01-06T20:29:58.154Z,94858.72
2023-01-06T20:32:24.763Z,94856.84
2023-01-06T20:34:51.420Z,94855.25
2023-01-06T20:37:18.107Z,94858.72
2023-01-06T20:39:45.002Z,94865.78
2023-01-06T20:42:13.328Z,94873.31
2023-01-06T20:44:40.836Z,94868.84
2023-01-06T20:47:07.551Z,94867.31
2023-01-06T20:49:34.539Z,94870.81
2023-01-06T20:52:01.189Z,94863.44
2023-01-06T20:54:27.826Z,94862.72
2023-01-06T20:56:54.497Z,94870.56
2023-01-06T20:59:21.132Z,94870.00
2023-01-06T21:01:48.056Z,94866.78
2023-01-06T21:04:15.057Z,94864.88
2023-01-06T21:06:41.915Z,94859.78
2023-01-06T21:09:08.516Z,94859.38
2023-01-06T21:11:35.163Z,94864.94
2023-01-06T21:14:01.985Z,94857.50
2023-01-06T21:16:28.665Z,94858.00
2023-01-06T21:18:55.356Z,94856.84
2023-01-06T21:21:22.021Z,94865.25
2023-01-06T21:23:48.637Z,94857.38
2023-01-06T21:26:15.257Z,94861.94
2023-01-06T21:28:41.886Z,94858.16
2023-01-06T21:31:08.581Z,94858.69
2023-01-06T21:33:35.240Z,94856.59
2023-01-06T21:36:02.012Z,94857.44
2023-01-06T21:38:28.606Z,94859.47
2023-01-06T21:41:15.190Z,94861.06
2023-01-06T21:43:41.826Z,94855.38
2023-01-06T21:46:08.531Z,94853.09
2023-01-06T21:48:35.145Z,94858.75
2023-01-06T21:51:02.581Z,94870.72
2023-01-06T21:53:31.681Z,94875.91
2023-01-06T21:55:58.912Z,94867.53
2023-01-06T21:58:25.915Z,94865.22
2023-01-06T22:00:52.711Z,94873.13
2023-01-06T22:03:19.342Z,94866.66
2023-01-06T22:05:46.310Z,94871.94
2023-01-06T22:08:13.248Z,94862.03
2023-01-06T22:10:42.352Z,94863.06
2023-01-06T22:13:12.681Z,94862.63
2023-01-06T22:15:40.907Z,94856.84
2023-01-06T22:18:08.397Z,94860.16
2023-01-06T22:20:35.837Z,94859.66
2023-01-06T22:23:06.827Z,94860.31
2023-01-06T22:25:33.503Z,94846.16
2023-01-06T22:28:00.113Z,94856.38
2023-01-06T22:30:27.163Z,94856.50
2023-01-06T22:32:53.764Z,94852.47
2023-01-06T22:35:20.498Z,94843.69
2023-01-06T22:37:47.200Z,94848.69
2023-01-06T22:40:14.923Z,94850.59
2023-01-06T22:42:42.208Z,94842.44
2023-01-06T22:45:09.919Z,94836.13
2023-01-06T22:47:36.497Z,94846.00
2023-01-06T22:50:04.231Z,94848.38
2023-01-06T22:52:31.079Z,94844.75
2023-01-06T22:54:57.659Z,94853.56
2023-01-06T22:57:24.387Z,94852.38
2023-01-06T22:59:51.086Z,94865.00
2023-01-06T23:02:17.936Z,94844.16
2023-01-06T23:04:44.632Z,94852.63
2023-01-06T23:07:11.500Z,94848.47
2023-01-06T23:09:38.121Z,94845.22
2023-01-06T23:12:04.938Z,94835.69
2023-01-06T23:14:37.175Z,94823.00
2023-01-06T23:17:03.801Z,94823.88
2023-01-06T23:19:30.398Z,94831.75
2023-01-06T23:21:57.150Z,94832.00
2023-01-06T23:24:23.735Z,94824.72
2023-01-06T23:26:50.308Z,94824.00
2023-01-06T23:29:16.970Z,94825.25
2023-01-06T23:31:46.338Z,94809.69
2023-01-06T23:34:16.337Z,94815.53
2023-01-06T23:36:44.126Z,94814.97
2023-01-06T23:39:13.592Z,94807.41
2023-01-06T23:41:40.547Z,94814.03
2023-01-06T23:44:07.520Z,94812.66
2023-01-06T23:46:39.358Z,94813.75
2023-01-06T23:49:07.035Z,94812.50
2023-01-06T23:51:34.380Z,94824.91
2023-01-06T23:54:02.412Z,94820.81
2023-01-06T23:56:30.904Z,94818.81
2023-01-06T23:58:59.434Z,94808.13
